sensor_id;sensor_type;location;lat;lon;timestamp;temperature;humidity
51863;DHT22;37900;52.996;6.278;2023-04-08T00:02:00;16.30;79.60
51863;DHT22;37900;52.996;6.278;2023-04-08T00:04:26;16.30;79.50
51863;DHT22;37900;52.996;6.278;2023-04-08T00:06:51;16.30;79.50
51863;DHT22;37900;52.996;6.278;2023-04-08T00:09:17;16.30;79.40
51863;DHT22;37900;52.996;6.278;2023-04-08T00:11:43;16.30;79.40
51863;DHT22;37900;52.996;6.278;2023-04-08T00:14:09;16.20;79.30
51863;DHT22;37900;52.996;6.278;2023-04-08T00:16:34;16.30;79.20
51863;DHT22;37900;52.996;6.278;2023-04-08T00:19:00;16.30;79.20
51863;DHT22;37900;52.996;6.278;2023-04-08T00:21:26;16.20;79.10
51863;DHT22;37900;52.996;6.278;2023-04-08T00:23:52;16.20;79.10
51863;DHT22;37900;52.996;6.278;2023-04-08T00:26:18;16.20;79.00
51863;DHT22;37900;52.996;6.278;2023-04-08T00:28:44;16.20;79.00
51863;DHT22;37900;52.996;6.278;2023-04-08T00:31:09;16.20;78.90
51863;DHT22;37900;52.996;6.278;2023-04-08T00:33:36;16.20;78.90
51863;DHT22;37900;52.996;6.278;2023-04-08T00:36:01;16.20;78.80
51863;DHT22;37900;52.996;6.278;2023-04-08T00:38:27;16.20;78.80
51863;DHT22;37900;52.996;6.278;2023-04-08T00:40:53;16.20;78.70
51863;DHT22;37900;52.996;6.278;2023-04-08T00:43:19;16.20;79.30
51863;DHT22;37900;52.996;6.278;2023-04-08T00:45:46;16.20;78.70
51863;DHT22;37900;52.996;6.278;2023-04-08T00:48:12;16.20;78.60
51863;DHT22;37900;52.996;6.278;2023-04-08T00:50:38;16.20;78.60
51863;DHT22;37900;52.996;6.278;2023-04-08T00:53:04;16.20;78.50
51863;DHT22;37900;52.996;6.278;2023-04-08T00:55:30;16.20;78.50
51863;DHT22;37900;52.996;6.278;2023-04-08T00:57:56;16.20;78.40
51863;DHT22;37900;52.996;6.278;2023-04-08T01:00:22;16.20;78.40
51863;DHT22;37900;52.996;6.278;2023-04-08T01:03:38;16.10;78.30
51863;DHT22;37900;52.996;6.278;2023-04-08T01:08:44;16.10;78.20
51863;DHT22;37900;52.996;6.278;2023-04-08T01:11:12;16.10;78.20
51863;DHT22;37900;52.996;6.278;2023-04-08T01:13:40;16.10;78.10
51863;DHT22;37900;52.996;6.278;2023-04-08T01:16:10;16.10;78.10
51863;DHT22;37900;52.996;6.278;2023-04-08T01:18:37;16.10;78.00
51863;DHT22;37900;52.996;6.278;2023-04-08T01:21:05;16.10;78.00
51863;DHT22;37900;52.996;6.278;2023-04-08T01:23:58;16.10;78.00
51863;DHT22;37900;52.996;6.278;2023-04-08T01:26:26;16.10;77.90
51863;DHT22;37900;52.996;6.278;2023-04-08T01:28:57;16.10;77.90
51863;DHT22;37900;52.996;6.278;2023-04-08T01:31:24;16.10;77.90
51863;DHT22;37900;52.996;6.278;2023-04-08T01:33:51;16.10;77.80
51863;DHT22;37900;52.996;6.278;2023-04-08T01:36:17;16.00;77.80
51863;DHT22;37900;52.996;6.278;2023-04-08T01:38:46;16.10;77.80
51863;DHT22;37900;52.996;6.278;2023-04-08T01:41:12;16.00;77.70
51863;DHT22;37900;52.996;6.278;2023-04-08T01:43:39;16.10;77.70
51863;DHT22;37900;52.996;6.278;2023-04-08T01:46:07;16.00;77.60
51863;DHT22;37900;52.996;6.278;2023-04-08T01:48:35;16.00;78.20
51863;DHT22;37900;52.996;6.278;2023-04-08T01:51:01;16.00;77.50
51863;DHT22;37900;52.996;6.278;2023-04-08T01:53:28;16.00;77.50
51863;DHT22;37900;52.996;6.278;2023-04-08T01:56:03;16.00;77.50
51863;DHT22;37900;52.996;6.278;2023-04-08T01:58:36;16.00;77.40
51863;DHT22;37900;52.996;6.278;2023-04-08T02:01:05;16.00;77.40
51863;DHT22;37900;52.996;6.278;2023-04-08T02:03:35;16.00;77.40
51863;DHT22;37900;52.996;6.278;2023-04-08T02:06:01;16.00;77.40
51863;DHT22;37900;52.996;6.278;2023-04-08T02:08:27;16.00;77.40
51863;DHT22;37900;52.996;6.278;2023-04-08T02:10:56;16.00;77.40
51863;DHT22;37900;52.996;6.278;2023-04-08T02:13:21;16.00;77.30
51863;DHT22;37900;52.996;6.278;2023-04-08T02:15:52;16.00;77.20
51863;DHT22;37900;52.996;6.278;2023-04-08T02:18:25;16.00;77.20
51863;DHT22;37900;52.996;6.278;2023-04-08T02:21:10;16.00;77.20
51863;DHT22;37900;52.996;6.278;2023-04-08T02:23:39;16.00;77.10
51863;DHT22;37900;52.996;6.278;2023-04-08T02:26:09;15.90;77.10
51863;DHT22;37900;52.996;6.278;2023-04-08T02:28:39;16.00;77.10
51863;DHT22;37900;52.996;6.278;2023-04-08T02:31:10;15.90;77.00
51863;DHT22;37900;52.996;6.278;2023-04-08T02:33:39;15.90;77.00
51863;DHT22;37900;52.996;6.278;2023-04-08T02:36:06;15.80;76.90
51863;DHT22;37900;52.996;6.278;2023-04-08T02:38:32;15.90;77.00
51863;DHT22;37900;52.996;6.278;2023-04-08T02:40:58;15.90;76.90
51863;DHT22;37900;52.996;6.278;2023-04-08T02:43:24;15.90;76.90
51863;DHT22;37900;52.996;6.278;2023-04-08T02:46:00;15.90;76.90
51863;DHT22;37900;52.996;6.278;2023-04-08T02:48:28;15.90;76.90
51863;DHT22;37900;52.996;6.278;2023-04-08T02:50:54;15.90;76.80
51863;DHT22;37900;52.996;6.278;2023-04-08T02:53:21;15.90;76.80
51863;DHT22;37900;52.996;6.278;2023-04-08T02:55:47;15.90;76.80
51863;DHT22;37900;52.996;6.278;2023-04-08T02:58:13;15.90;76.80
51863;DHT22;37900;52.996;6.278;2023-04-08T03:00:39;15.80;76.70
51863;DHT22;37900;52.996;6.278;2023-04-08T03:03:05;15.80;76.70
51863;DHT22;37900;52.996;6.278;2023-04-08T03:05:33;15.80;76.60
51863;DHT22;37900;52.996;6.278;2023-04-08T03:07:59;15.80;76.60
51863;DHT22;37900;52.996;6.278;2023-04-08T03:10:25;15.80;76.60
51863;DHT22;37900;52.996;6.278;2023-04-08T03:12:51;15.80;76.80
51863;DHT22;37900;52.996;6.278;2023-04-08T03:15:17;15.80;76.60
51863;DHT22;37900;52.996;6.278;2023-04-08T03:17:43;15.90;76.60
51863;DHT22;37900;52.996;6.278;2023-04-08T03:20:09;15.80;76.50
51863;DHT22;37900;52.996;6.278;2023-04-08T03:22:35;15.80;76.50
51863;DHT22;37900;52.996;6.278;2023-04-08T03:25:01;15.80;76.50
51863;DHT22;37900;52.996;6.278;2023-04-08T03:27:27;15.80;76.50
51863;DHT22;37900;52.996;6.278;2023-04-08T03:29:53;15.80;76.40
51863;DHT22;37900;52.996;6.278;2023-04-08T03:32:19;15.80;76.40
51863;DHT22;37900;52.996;6.278;2023-04-08T03:34:45;15.80;76.40
51863;DHT22;37900;52.996;6.278;2023-04-08T03:37:11;15.80;76.40
51863;DHT22;37900;52.996;6.278;2023-04-08T03:39:37;15.80;76.40
51863;DHT22;37900;52.996;6.278;2023-04-08T03:42:03;15.80;76.30
51863;DHT22;37900;52.996;6.278;2023-04-08T03:44:29;15.80;76.30
51863;DHT22;37900;52.996;6.278;2023-04-08T03:46:54;15.80;76.30
51863;DHT22;37900;52.996;6.278;2023-04-08T03:49:20;15.80;76.20
51863;DHT22;37900;52.996;6.278;2023-04-08T03:51:46;15.80;76.20
51863;DHT22;37900;52.996;6.278;2023-04-08T03:54:15;15.80;76.20
51863;DHT22;37900;52.996;6.278;2023-04-08T03:56:40;15.70;76.20
51863;DHT22;37900;52.996;6.278;2023-04-08T03:59:06;15.70;76.10
51863;DHT22;37900;52.996;6.278;2023-04-08T04:01:32;15.70;76.10
51863;DHT22;37900;52.996;6.278;2023-04-08T04:03:58;15.70;76.10
51863;DHT22;37900;52.996;6.278;2023-04-08T04:06:23;15.70;76.10
51863;DHT22;37900;52.996;6.278;2023-04-08T04:08:49;15.70;76.00
51863;DHT22;37900;52.996;6.278;2023-04-08T04:11:15;15.70;76.00
51863;DHT22;37900;52.996;6.278;2023-04-08T04:13:41;15.70;76.00
51863;DHT22;37900;52.996;6.278;2023-04-08T04:16:06;15.70;76.00
51863;DHT22;37900;52.996;6.278;2023-04-08T04:18:32;15.70;76.00
51863;DHT22;37900;52.996;6.278;2023-04-08T04:20:58;15.70;75.90
51863;DHT22;37900;52.996;6.278;2023-04-08T04:23:23;15.70;75.90
51863;DHT22;37900;52.996;6.278;2023-04-08T04:25:50;15.70;75.90
51863;DHT22;37900;52.996;6.278;2023-04-08T04:28:16;15.70;75.90
51863;DHT22;37900;52.996;6.278;2023-04-08T04:30:42;15.70;75.90
51863;DHT22;37900;52.996;6.278;2023-04-08T04:33:07;15.70;75.80
51863;DHT22;37900;52.996;6.278;2023-04-08T04:35:33;15.60;75.80
51863;DHT22;37900;52.996;6.278;2023-04-08T04:37:59;15.70;75.80
51863;DHT22;37900;52.996;6.278;2023-04-08T04:40:24;15.60;75.70
51863;DHT22;37900;52.996;6.278;2023-04-08T04:42:50;15.60;75.70
51863;DHT22;37900;52.996;6.278;2023-04-08T04:45:16;15.60;75.70
51863;DHT22;37900;52.996;6.278;2023-04-08T04:47:41;15.60;75.70
51863;DHT22;37900;52.996;6.278;2023-04-08T04:50:08;15.60;75.70
51863;DHT22;37900;52.996;6.278;2023-04-08T04:52:35;15.60;75.70
51863;DHT22;37900;52.996;6.278;2023-04-08T04:55:02;15.60;75.70
51863;DHT22;37900;52.996;6.278;2023-04-08T04:57:28;15.60;75.70
51863;DHT22;37900;52.996;6.278;2023-04-08T04:59:54;15.60;75.60
51863;DHT22;37900;52.996;6.278;2023-04-08T05:02:19;15.60;75.60
51863;DHT22;37900;52.996;6.278;2023-04-08T05:04:45;15.60;75.60
51863;DHT22;37900;52.996;6.278;2023-04-08T05:07:11;15.60;75.60
51863;DHT22;37900;52.996;6.278;2023-04-08T05:09:36;15.60;75.50
51863;DHT22;37900;52.996;6.278;2023-04-08T05:12:02;15.60;75.50
51863;DHT22;37900;52.996;6.278;2023-04-08T05:14:28;15.60;75.50
51863;DHT22;37900;52.996;6.278;2023-04-08T05:16:55;15.50;75.40
51863;DHT22;37900;52.996;6.278;2023-04-08T05:19:21;15.50;75.40
51863;DHT22;37900;52.996;6.278;2023-04-08T05:21:46;15.60;75.50
51863;DHT22;37900;52.996;6.278;2023-04-08T05:24:12;15.50;75.40
51863;DHT22;37900;52.996;6.278;2023-04-08T05:26:38;15.50;75.40
51863;DHT22;37900;52.996;6.278;2023-04-08T05:29:03;15.50;75.40
51863;DHT22;37900;52.996;6.278;2023-04-08T05:31:29;15.50;75.40
51863;DHT22;37900;52.996;6.278;2023-04-08T05:33:55;15.50;75.40
51863;DHT22;37900;52.996;6.278;2023-04-08T05:36:21;15.50;75.30
51863;DHT22;37900;52.996;6.278;2023-04-08T05:38:46;15.50;75.30
51863;DHT22;37900;52.996;6.278;2023-04-08T05:41:13;15.50;75.30
51863;DHT22;37900;52.996;6.278;2023-04-08T05:43:38;15.50;75.30
51863;DHT22;37900;52.996;6.278;2023-04-08T05:46:08;15.50;75.30
51863;DHT22;37900;52.996;6.278;2023-04-08T05:48:34;15.50;75.30
51863;DHT22;37900;52.996;6.278;2023-04-08T05:51:00;15.50;75.30
51863;DHT22;37900;52.996;6.278;2023-04-08T05:53:26;15.50;75.30
51863;DHT22;37900;52.996;6.278;2023-04-08T05:55:52;15.50;75.30
51863;DHT22;37900;52.996;6.278;2023-04-08T05:58:17;15.60;75.30
51863;DHT22;37900;52.996;6.278;2023-04-08T06:00:43;15.60;75.30
51863;DHT22;37900;52.996;6.278;2023-04-08T06:03:09;15.60;75.30
51863;DHT22;37900;52.996;6.278;2023-04-08T06:05:34;15.60;75.30
51863;DHT22;37900;52.996;6.278;2023-04-08T06:08:00;15.60;75.30
51863;DHT22;37900;52.996;6.278;2023-04-08T06:10:26;15.60;75.30
51863;DHT22;37900;52.996;6.278;2023-04-08T06:12:52;15.60;75.30
51863;DHT22;37900;52.996;6.278;2023-04-08T06:15:17;15.60;75.30
51863;DHT22;37900;52.996;6.278;2023-04-08T06:17:43;15.60;75.30
51863;DHT22;37900;52.996;6.278;2023-04-08T06:20:09;15.60;75.20
51863;DHT22;37900;52.996;6.278;2023-04-08T06:22:35;15.60;75.20
51863;DHT22;37900;52.996;6.278;2023-04-08T06:25:01;15.50;75.10
51863;DHT22;37900;52.996;6.278;2023-04-08T06:27:27;15.60;75.20
51863;DHT22;37900;52.996;6.278;2023-04-08T06:29:53;15.50;75.10
51863;DHT22;37900;52.996;6.278;2023-04-08T06:32:20;15.50;75.10
51863;DHT22;37900;52.996;6.278;2023-04-08T06:34:46;15.50;75.10
51863;DHT22;37900;52.996;6.278;2023-04-08T06:37:12;15.50;75.10
51863;DHT22;37900;52.996;6.278;2023-04-08T06:39:38;15.50;75.10
51863;DHT22;37900;52.996;6.278;2023-04-08T06:42:04;15.50;75.10
51863;DHT22;37900;52.996;6.278;2023-04-08T06:44:30;15.50;75.10
51863;DHT22;37900;52.996;6.278;2023-04-08T06:46:56;15.50;75.10
51863;DHT22;37900;52.996;6.278;2023-04-08T06:49:22;15.50;75.10
51863;DHT22;37900;52.996;6.278;2023-04-08T06:51:48;15.50;75.10
51863;DHT22;37900;52.996;6.278;2023-04-08T06:54:14;15.50;75.10
51863;DHT22;37900;52.996;6.278;2023-04-08T06:56:40;15.50;75.10
51863;DHT22;37900;52.996;6.278;2023-04-08T06:59:06;15.50;75.10
51863;DHT22;37900;52.996;6.278;2023-04-08T07:01:31;15.40;75.00
51863;DHT22;37900;52.996;6.278;2023-04-08T07:03:57;15.50;75.10
51863;DHT22;37900;52.996;6.278;2023-04-08T07:06:23;15.40;75.00
51863;DHT22;37900;52.996;6.278;2023-04-08T07:08:49;15.50;75.10
51863;DHT22;37900;52.996;6.278;2023-04-08T07:11:15;15.50;75.10
51863;DHT22;37900;52.996;6.278;2023-04-08T07:13:41;15.40;75.10
51863;DHT22;37900;52.996;6.278;2023-04-08T07:16:06;15.40;75.00
51863;DHT22;37900;52.996;6.278;2023-04-08T07:18:32;15.50;75.70
51863;DHT22;37900;52.996;6.278;2023-04-08T07:20:58;15.40;75.00
51863;DHT22;37900;52.996;6.278;2023-04-08T07:23:25;15.40;75.00
51863;DHT22;37900;52.996;6.278;2023-04-08T07:25:52;15.40;75.00
51863;DHT22;37900;52.996;6.278;2023-04-08T07:28:19;15.40;75.10
51863;DHT22;37900;52.996;6.278;2023-04-08T07:30:45;15.40;75.00
51863;DHT22;37900;52.996;6.278;2023-04-08T07:33:10;15.40;75.00
51863;DHT22;37900;52.996;6.278;2023-04-08T07:35:36;15.40;75.10
51863;DHT22;37900;52.996;6.278;2023-04-08T07:38:02;15.40;75.00
51863;DHT22;37900;52.996;6.278;2023-04-08T07:40:29;15.40;75.00
51863;DHT22;37900;52.996;6.278;2023-04-08T07:42:55;15.40;75.10
51863;DHT22;37900;52.996;6.278;2023-04-08T07:45:20;15.40;75.00
51863;DHT22;37900;52.996;6.278;2023-04-08T07:47:46;15.30;75.00
51863;DHT22;37900;52.996;6.278;2023-04-08T07:50:12;15.40;75.00
51863;DHT22;37900;52.996;6.278;2023-04-08T07:52:38;15.40;75.10
51863;DHT22;37900;52.996;6.278;2023-04-08T07:55:04;15.40;75.20
51863;DHT22;37900;52.996;6.278;2023-04-08T07:57:31;15.40;75.50
51863;DHT22;37900;52.996;6.278;2023-04-08T07:59:57;15.40;75.80
51863;DHT22;37900;52.996;6.278;2023-04-08T08:02:22;15.50;75.90
51863;DHT22;37900;52.996;6.278;2023-04-08T08:04:48;15.50;76.60
51863;DHT22;37900;52.996;6.278;2023-04-08T08:07:14;15.50;76.00
51863;DHT22;37900;52.996;6.278;2023-04-08T08:09:40;15.50;76.20
51863;DHT22;37900;52.996;6.278;2023-04-08T08:12:05;15.50;76.20
51863;DHT22;37900;52.996;6.278;2023-04-08T08:14:31;15.50;76.30
51863;DHT22;37900;52.996;6.278;2023-04-08T08:16:57;15.50;76.40
51863;DHT22;37900;52.996;6.278;2023-04-08T08:19:23;15.50;76.50
51863;DHT22;37900;52.996;6.278;2023-04-08T08:21:48;15.50;76.50
51863;DHT22;37900;52.996;6.278;2023-04-08T08:24:15;15.50;76.60
51863;DHT22;37900;52.996;6.278;2023-04-08T08:26:41;15.50;76.70
51863;DHT22;37900;52.996;6.278;2023-04-08T08:29:09;15.50;76.70
51863;DHT22;37900;52.996;6.278;2023-04-08T08:31:35;15.50;76.80
51863;DHT22;37900;52.996;6.278;2023-04-08T08:34:00;15.50;76.80
51863;DHT22;37900;52.996;6.278;2023-04-08T08:36:27;15.50;76.90
51863;DHT22;37900;52.996;6.278;2023-04-08T08:38:53;15.50;77.00
51863;DHT22;37900;52.996;6.278;2023-04-08T08:41:21;15.50;77.10
51863;DHT22;37900;52.996;6.278;2023-04-08T08:43:47;15.50;77.30
51863;DHT22;37900;52.996;6.278;2023-04-08T08:46:15;15.60;77.30
51863;DHT22;37900;52.996;6.278;2023-04-08T08:48:42;15.60;77.50
51863;DHT22;37900;52.996;6.278;2023-04-08T08:51:09;15.60;77.50
51863;DHT22;37900;52.996;6.278;2023-04-08T08:53:35;15.60;77.60
51863;DHT22;37900;52.996;6.278;2023-04-08T08:56:01;15.60;77.70
51863;DHT22;37900;52.996;6.278;2023-04-08T08:58:27;15.60;77.70
51863;DHT22;37900;52.996;6.278;2023-04-08T09:00:53;15.60;77.80
51863;DHT22;37900;52.996;6.278;2023-04-08T09:03:23;15.60;77.90
51863;DHT22;37900;52.996;6.278;2023-04-08T09:10:49;15.60;78.20
51863;DHT22;37900;52.996;6.278;2023-04-08T09:13:15;15.70;78.30
51863;DHT22;37900;52.996;6.278;2023-04-08T09:16:01;15.60;78.30
51863;DHT22;37900;52.996;6.278;2023-04-08T09:18:31;15.70;78.50
51863;DHT22;37900;52.996;6.278;2023-04-08T09:20:59;15.70;78.50
51863;DHT22;37900;52.996;6.278;2023-04-08T09:26:10;15.70;78.60
51863;DHT22;37900;52.996;6.278;2023-04-08T09:28:37;15.70;78.70
51863;DHT22;37900;52.996;6.278;2023-04-08T09:31:18;15.70;78.80
51863;DHT22;37900;52.996;6.278;2023-04-08T09:33:45;15.70;78.80
51863;DHT22;37900;52.996;6.278;2023-04-08T09:36:12;15.70;78.80
51863;DHT22;37900;52.996;6.278;2023-04-08T09:38:38;15.80;79.00
51863;DHT22;37900;52.996;6.278;2023-04-08T09:41:06;15.80;79.00
51863;DHT22;37900;52.996;6.278;2023-04-08T09:43:36;15.70;79.10
51863;DHT22;37900;52.996;6.278;2023-04-08T09:46:05;15.80;79.10
51863;DHT22;37900;52.996;6.278;2023-04-08T09:48:39;15.80;79.20
51863;DHT22;37900;52.996;6.278;2023-04-08T09:51:06;15.80;79.90
51863;DHT22;37900;52.996;6.278;2023-04-08T09:53:46;15.80;79.30
51863;DHT22;37900;52.996;6.278;2023-04-08T09:56:13;15.80;79.40
51863;DHT22;37900;52.996;6.278;2023-04-08T09:58:53;15.80;79.40
51863;DHT22;37900;52.996;6.278;2023-04-08T10:01:27;15.80;79.40
51863;DHT22;37900;52.996;6.278;2023-04-08T10:03:57;15.80;79.50
51863;DHT22;37900;52.996;6.278;2023-04-08T10:06:27;15.80;79.60
51863;DHT22;37900;52.996;6.278;2023-04-08T10:08:58;15.80;80.20
51863;DHT22;37900;52.996;6.278;2023-04-08T10:11:24;15.80;79.60
51863;DHT22;37900;52.996;6.278;2023-04-08T10:13:50;15.80;79.70
51863;DHT22;37900;52.996;6.278;2023-04-08T10:16:19;15.90;80.40
51863;DHT22;37900;52.996;6.278;2023-04-08T10:18:46;15.90;79.80
51863;DHT22;37900;52.996;6.278;2023-04-08T10:23:59;15.90;80.00
51863;DHT22;37900;52.996;6.278;2023-04-08T10:26:44;15.90;80.00
51863;DHT22;37900;52.996;6.278;2023-04-08T10:31:42;15.90;80.00
51863;DHT22;37900;52.996;6.278;2023-04-08T10:34:25;15.90;80.00
51863;DHT22;37900;52.996;6.278;2023-04-08T10:36:52;15.90;80.20
51863;DHT22;37900;52.996;6.278;2023-04-08T10:39:19;15.90;80.30
51863;DHT22;37900;52.996;6.278;2023-04-08T10:41:48;16.00;80.40
51863;DHT22;37900;52.996;6.278;2023-04-08T10:44:26;16.00;80.40
51863;DHT22;37900;52.996;6.278;2023-04-08T10:46:53;16.00;80.60
51863;DHT22;37900;52.996;6.278;2023-04-08T10:49:19;16.10;80.50
51863;DHT22;37900;52.996;6.278;2023-04-08T10:51:47;16.10;80.50
51863;DHT22;37900;52.996;6.278;2023-04-08T10:54:14;16.20;80.40
51863;DHT22;37900;52.996;6.278;2023-04-08T10:56:48;16.20;80.40
51863;DHT22;37900;52.996;6.278;2023-04-08T10:59:15;16.20;80.40
51863;DHT22;37900;52.996;6.278;2023-04-08T11:01:43;16.20;80.40
51863;DHT22;37900;52.996;6.278;2023-04-08T11:04:17;16.20;80.50
51863;DHT22;37900;52.996;6.278;2023-04-08T11:06:45;16.20;80.50
51863;DHT22;37900;52.996;6.278;2023-04-08T11:09:12;16.20;80.60
51863;DHT22;37900;52.996;6.278;2023-04-08T11:11:40;16.20;81.20
51863;DHT22;37900;52.996;6.278;2023-04-08T11:14:06;16.20;80.60
51863;DHT22;37900;52.996;6.278;2023-04-08T11:16:33;16.20;80.60
51863;DHT22;37900;52.996;6.278;2023-04-08T11:19:02;16.20;80.70
51863;DHT22;37900;52.996;6.278;2023-04-08T11:21:31;16.20;80.70
51863;DHT22;37900;52.996;6.278;2023-04-08T11:23:59;16.20;80.70
51863;DHT22;37900;52.996;6.278;2023-04-08T11:26:26;16.20;80.80
51863;DHT22;37900;52.996;6.278;2023-04-08T11:28:53;16.20;80.80
51863;DHT22;37900;52.996;6.278;2023-04-08T11:31:20;16.20;80.80
51863;DHT22;37900;52.996;6.278;2023-04-08T11:33:47;16.20;81.10
51863;DHT22;37900;52.996;6.278;2023-04-08T11:36:13;16.20;80.90
51863;DHT22;37900;52.996;6.278;2023-04-08T11:38:39;16.20;80.80
51863;DHT22;37900;52.996;6.278;2023-04-08T11:41:09;16.20;80.90
51863;DHT22;37900;52.996;6.278;2023-04-08T11:43:36;16.30;81.00
51863;DHT22;37900;52.996;6.278;2023-04-08T11:46:11;16.30;81.00
51863;DHT22;37900;52.996;6.278;2023-04-08T11:48:38;16.30;80.90
51863;DHT22;37900;52.996;6.278;2023-04-08T11:51:07;16.40;80.90
51863;DHT22;37900;52.996;6.278;2023-04-08T11:53:35;16.40;80.90
51863;DHT22;37900;52.996;6.278;2023-04-08T11:56:21;16.40;80.90
51863;DHT22;37900;52.996;6.278;2023-04-08T11:58:48;16.40;81.30
51863;DHT22;37900;52.996;6.278;2023-04-08T12:01:14;16.40;81.50
51863;DHT22;37900;52.996;6.278;2023-04-08T12:03:53;16.40;81.70
51863;DHT22;37900;52.996;6.278;2023-04-08T12:06:19;16.40;81.90
51863;DHT22;37900;52.996;6.278;2023-04-08T12:08:45;16.40;82.10
51863;DHT22;37900;52.996;6.278;2023-04-08T12:11:10;16.40;82.20
51863;DHT22;37900;52.996;6.278;2023-04-08T12:13:36;16.40;82.30
51863;DHT22;37900;52.996;6.278;2023-04-08T12:16:02;16.40;82.50
51863;DHT22;37900;52.996;6.278;2023-04-08T12:18:28;16.50;82.70
51863;DHT22;37900;52.996;6.278;2023-04-08T12:20:53;16.40;82.80
51863;DHT22;37900;52.996;6.278;2023-04-08T12:23:19;16.40;83.00
51863;DHT22;37900;52.996;6.278;2023-04-08T12:25:45;16.50;83.10
51863;DHT22;37900;52.996;6.278;2023-04-08T12:28:10;16.40;83.10
51863;DHT22;37900;52.996;6.278;2023-04-08T12:30:36;16.50;83.30
51863;DHT22;37900;52.996;6.278;2023-04-08T12:33:02;16.50;83.50
51863;DHT22;37900;52.996;6.278;2023-04-08T12:35:28;16.50;83.50
51863;DHT22;37900;52.996;6.278;2023-04-08T12:37:54;16.50;83.60
51863;DHT22;37900;52.996;6.278;2023-04-08T12:40:19;16.50;83.70
51863;DHT22;37900;52.996;6.278;2023-04-08T12:42:45;16.50;83.90
51863;DHT22;37900;52.996;6.278;2023-04-08T12:45:11;16.50;83.90
51863;DHT22;37900;52.996;6.278;2023-04-08T12:47:37;16.50;84.20
51863;DHT22;37900;52.996;6.278;2023-04-08T12:50:02;16.50;84.20
51863;DHT22;37900;52.996;6.278;2023-04-08T12:52:28;16.50;84.40
51863;DHT22;37900;52.996;6.278;2023-04-08T12:54:54;16.50;84.60
51863;DHT22;37900;52.996;6.278;2023-04-08T12:57:20;16.50;84.90
51863;DHT22;37900;52.996;6.278;2023-04-08T12:59:46;16.70;85.20
51863;DHT22;37900;52.996;6.278;2023-04-08T13:02:12;16.60;85.70
51863;DHT22;37900;52.996;6.278;2023-04-08T13:04:37;16.60;86.20
51863;DHT22;37900;52.996;6.278;2023-04-08T13:07:03;16.60;86.10
51863;DHT22;37900;52.996;6.278;2023-04-08T13:09:29;16.60;85.90
51863;DHT22;37900;52.996;6.278;2023-04-08T13:11:55;16.60;85.90
51863;DHT22;37900;52.996;6.278;2023-04-08T13:14:21;16.60;85.80
51863;DHT22;37900;52.996;6.278;2023-04-08T13:16:49;16.60;85.70
51863;DHT22;37900;52.996;6.278;2023-04-08T13:19:15;16.60;85.60
51863;DHT22;37900;52.996;6.278;2023-04-08T13:21:40;16.60;85.60
51863;DHT22;37900;52.996;6.278;2023-04-08T13:24:06;16.60;85.60
51863;DHT22;37900;52.996;6.278;2023-04-08T13:26:32;16.60;85.50
51863;DHT22;37900;52.996;6.278;2023-04-08T13:28:58;16.60;85.60
51863;DHT22;37900;52.996;6.278;2023-04-08T13:31:24;16.60;85.70
51863;DHT22;37900;52.996;6.278;2023-04-08T13:33:49;16.60;85.70
51863;DHT22;37900;52.996;6.278;2023-04-08T13:36:15;16.60;85.70
51863;DHT22;37900;52.996;6.278;2023-04-08T13:38:41;16.60;85.70
51863;DHT22;37900;52.996;6.278;2023-04-08T13:41:08;16.60;85.70
51863;DHT22;37900;52.996;6.278;2023-04-08T13:43:33;16.60;85.70
51863;DHT22;37900;52.996;6.278;2023-04-08T13:46:00;16.60;85.60
51863;DHT22;37900;52.996;6.278;2023-04-08T13:48:26;16.60;85.60
51863;DHT22;37900;52.996;6.278;2023-04-08T13:50:52;16.60;85.50
51863;DHT22;37900;52.996;6.278;2023-04-08T13:53:17;16.60;85.60
51863;DHT22;37900;52.996;6.278;2023-04-08T13:55:43;16.60;85.60
51863;DHT22;37900;52.996;6.278;2023-04-08T13:58:09;16.60;85.50
51863;DHT22;37900;52.996;6.278;2023-04-08T14:00:35;16.60;85.40
51863;DHT22;37900;52.996;6.278;2023-04-08T14:03:01;16.60;85.40
51863;DHT22;37900;52.996;6.278;2023-04-08T14:05:26;16.50;85.30
51863;DHT22;37900;52.996;6.278;2023-04-08T14:07:52;16.50;85.40
51863;DHT22;37900;52.996;6.278;2023-04-08T14:10:18;16.60;85.60
51863;DHT22;37900;52.996;6.278;2023-04-08T14:12:44;16.60;85.50
51863;DHT22;37900;52.996;6.278;2023-04-08T14:15:11;16.60;85.50
51863;DHT22;37900;52.996;6.278;2023-04-08T14:17:36;16.60;85.60
51863;DHT22;37900;52.996;6.278;2023-04-08T14:20:02;16.60;85.90
51863;DHT22;37900;52.996;6.278;2023-04-08T14:22:30;16.60;86.10
51863;DHT22;37900;52.996;6.278;2023-04-08T14:24:55;16.60;86.20
51863;DHT22;37900;52.996;6.278;2023-04-08T14:27:21;16.70;86.10
51863;DHT22;37900;52.996;6.278;2023-04-08T14:29:47;16.70;86.10
51863;DHT22;37900;52.996;6.278;2023-04-08T14:32:13;16.70;86.00
51863;DHT22;37900;52.996;6.278;2023-04-08T14:34:39;16.80;86.10
51863;DHT22;37900;52.996;6.278;2023-04-08T14:37:04;16.70;86.10
51863;DHT22;37900;52.996;6.278;2023-04-08T14:39:30;16.80;86.10
51863;DHT22;37900;52.996;6.278;2023-04-08T14:41:56;16.70;86.10
51863;DHT22;37900;52.996;6.278;2023-04-08T14:44:23;16.70;86.10
51863;DHT22;37900;52.996;6.278;2023-04-08T14:46:48;16.70;86.10
51863;DHT22;37900;52.996;6.278;2023-04-08T14:49:14;16.70;86.00
51863;DHT22;37900;52.996;6.278;2023-04-08T14:51:40;16.70;86.00
51863;DHT22;37900;52.996;6.278;2023-04-08T14:54:05;16.70;86.10
51863;DHT22;37900;52.996;6.278;2023-04-08T14:56:31;16.70;86.00
51863;DHT22;37900;52.996;6.278;2023-04-08T14:58:57;16.70;86.10
51863;DHT22;37900;52.996;6.278;2023-04-08T15:01:23;16.70;86.10
51863;DHT22;37900;52.996;6.278;2023-04-08T15:03:49;16.70;86.10
51863;DHT22;37900;52.996;6.278;2023-04-08T15:06:14;16.70;86.10
51863;DHT22;37900;52.996;6.278;2023-04-08T15:08:42;16.70;86.10
51863;DHT22;37900;52.996;6.278;2023-04-08T15:11:08;16.70;86.20
51863;DHT22;37900;52.996;6.278;2023-04-08T15:13:34;16.70;86.80
51863;DHT22;37900;52.996;6.278;2023-04-08T15:16:00;16.70;86.20
51863;DHT22;37900;52.996;6.278;2023-04-08T15:18:26;16.80;86.30
51863;DHT22;37900;52.996;6.278;2023-04-08T15:20:52;16.70;86.30
51863;DHT22;37900;52.996;6.278;2023-04-08T15:23:17;16.80;86.30
51863;DHT22;37900;52.996;6.278;2023-04-08T15:25:43;16.70;86.20
51863;DHT22;37900;52.996;6.278;2023-04-08T15:28:09;16.70;86.30
51863;DHT22;37900;52.996;6.278;2023-04-08T15:30:35;16.80;86.30
51863;DHT22;37900;52.996;6.278;2023-04-08T15:33:04;16.80;86.30
51863;DHT22;37900;52.996;6.278;2023-04-08T15:35:30;16.80;86.30
51863;DHT22;37900;52.996;6.278;2023-04-08T15:37:56;16.80;86.40
51863;DHT22;37900;52.996;6.278;2023-04-08T15:40:22;16.80;86.40
51863;DHT22;37900;52.996;6.278;2023-04-08T15:42:47;16.80;86.40
51863;DHT22;37900;52.996;6.278;2023-04-08T15:45:15;16.80;86.40